Darstellungsparameter: Aktuell verwendete Einstellungen:
Skalierung der Graphiken ... ?
xyx+y,   Skalierungsfaktor:      Skalierung: Modus: x, Faktor: 1
Darstellungszeitraum ... ?
Vom - - bis: - -   Zeitraum: 24.11.2017 - 24.11.2017
Min/Max/Avg-Anzeige ... ?
Zeige MMA aktuell
Zeige MMA Monat
Zeige MMA alles
Zeige --A aktuell
Zeige --A Monat
Zeige --A alles
Keine MMA-Anzeige
MMA:
Keine MMA-Graphiken
MMA-Basis: 24.11.2017 - 24.11.2017
Quicknavigation für Darstellung... ?
Tage:      1T, 2T, 3T, 5T -1T -2T -3T -5T +1T +2T +3T +5T
Wochen: 1W, 2W, 3W -1W -2W -3W +1W +2W +3W
Monate: 1M, 3M, 6M -1M -3M -6M +1M +3M +6M
Jahre:    1J, 3J, 5J, 10J -1J -3J -5J -10J +1J +3J +5J +10J
Nutze für die Darstellung ... ?
Originaldaten oder Mittelwerte auf ...
Stundenbasis Tagesbasis Wochenbasis
Monatsbasis Jahresbasis      Datenbasis: Original-Daten
Darstellen als:
Statistik (Auto) Statistik J:M      Darstellung:
Zur Graphik,    zurück zur Übersicht aller Sensoren.
 
Tabellarische Datenbersicht: ?
 
Sensor: Nr:Datum:Temp:Feuchte:Taupunkt:
Aussen-T/F 1 24-11-2017 00:00:00 11.7 C 96 % 11.08 C
2 24-11-2017 00:05:00 11.7 C 96 % 11.08 C
3 24-11-2017 00:10:00 11.7 C 96 % 11.08 C
4 24-11-2017 00:15:00 11.7 C 96 % 11.08 C
5 24-11-2017 00:20:00 11.7 C 95 % 10.93 C
6 24-11-2017 00:25:00 11.7 C 95 % 10.93 C
7 24-11-2017 00:30:00 11.7 C 95 % 10.93 C
8 24-11-2017 00:35:00 11.7 C 95 % 10.93 C
9 24-11-2017 00:40:00 11.7 C 95 % 10.93 C
10 24-11-2017 00:45:00 11.7 C 95 % 10.93 C
11 24-11-2017 00:50:00 11.7 C 95 % 10.93 C
12 24-11-2017 00:55:00 11.6 C 95 % 10.83 C
13 24-11-2017 01:00:00 11.6 C 95 % 10.83 C
14 24-11-2017 01:05:00 11.6 C 95 % 10.83 C
15 24-11-2017 01:10:00 11.5 C 95 % 10.73 C
16 24-11-2017 01:15:00 11.4 C 95 % 10.63 C
17 24-11-2017 01:20:00 11.4 C 95 % 10.63 C
18 24-11-2017 01:25:00 11.4 C 95 % 10.63 C
19 24-11-2017 01:30:00 11.3 C 95 % 10.53 C
20 24-11-2017 01:35:00 11.3 C 95 % 10.53 C
21 24-11-2017 01:40:00 11.2 C 95 % 10.43 C
22 24-11-2017 01:45:00 11.2 C 95 % 10.43 C
23 24-11-2017 01:50:00 11.2 C 95 % 10.43 C
24 24-11-2017 01:55:00 11.2 C 96 % 10.59 C
25 24-11-2017 02:00:00 11.2 C 96 % 10.59 C
Sensor: Nr:Datum:Temp:Feuchte:Taupunkt:
Aussen-T/F 26 24-11-2017 02:05:00 11.2 C 96 % 10.59 C
27 24-11-2017 02:10:00 11.2 C 96 % 10.59 C
28 24-11-2017 02:15:00 11.2 C 96 % 10.59 C
29 24-11-2017 02:20:00 11.2 C 95 % 10.43 C
30 24-11-2017 02:25:00 11.2 C 95 % 10.43 C
31 24-11-2017 02:30:00 11.1 C 96 % 10.49 C
32 24-11-2017 02:35:00 11.1 C 96 % 10.49 C
33 24-11-2017 02:40:00 11.2 C 96 % 10.59 C
34 24-11-2017 02:45:00 11.2 C 96 % 10.59 C
35 24-11-2017 02:50:00 11.2 C 96 % 10.59 C
36 24-11-2017 02:55:00 11.3 C 96 % 10.69 C
37 24-11-2017 03:00:00 11.3 C 96 % 10.69 C
38 24-11-2017 03:05:00 11.3 C 96 % 10.69 C
39 24-11-2017 03:10:00 11.2 C 96 % 10.59 C
40 24-11-2017 03:15:00 11.2 C 96 % 10.59 C
41 24-11-2017 03:20:00 11.2 C 96 % 10.59 C
42 24-11-2017 03:25:00 11.2 C 96 % 10.59 C
43 24-11-2017 03:30:00 11.3 C 96 % 10.69 C
44 24-11-2017 03:35:00 11.2 C 96 % 10.59 C
45 24-11-2017 03:40:00 11.2 C 95 % 10.43 C
46 24-11-2017 03:45:00 11.1 C 95 % 10.33 C
47 24-11-2017 03:50:00 11.2 C 96 % 10.59 C
48 24-11-2017 03:55:00 11.2 C 95 % 10.43 C
49 24-11-2017 04:00:00 11.2 C 95 % 10.43 C
50 24-11-2017 04:05:00 11.1 C 95 % 10.33 C
Sensor: Nr:Datum:Temp:Feuchte:Taupunkt:
Aussen-T/F 51 24-11-2017 04:10:00 10.9 C 95 % 10.13 C
52 24-11-2017 04:15:00 10.9 C 95 % 10.13 C
53 24-11-2017 04:20:00 11 C 95 % 10.23 C
54 24-11-2017 04:25:00 11.1 C 95 % 10.33 C
55 24-11-2017 04:30:00 11.2 C 95 % 10.43 C
56 24-11-2017 04:35:00 11.2 C 94 % 10.27 C
57 24-11-2017 04:40:00 11.2 C 94 % 10.27 C
58 24-11-2017 04:45:00 11.2 C 94 % 10.27 C
59 24-11-2017 04:50:00 11.3 C 94 % 10.37 C
60 24-11-2017 04:55:00 11.3 C 93 % 10.21 C
61 24-11-2017 05:00:00 11.3 C 93 % 10.21 C
62 24-11-2017 05:05:00 11.4 C 93 % 10.31 C
63 24-11-2017 05:10:00 11.4 C 93 % 10.31 C
64 24-11-2017 05:15:00 11.4 C 92 % 10.15 C
65 24-11-2017 05:20:00 11.4 C 92 % 10.15 C
66 24-11-2017 05:25:00 11.4 C 92 % 10.15 C
67 24-11-2017 05:30:00 11.3 C 92 % 10.05 C
68 24-11-2017 05:35:00 11.4 C 92 % 10.15 C
69 24-11-2017 05:40:00 11.5 C 92 % 10.25 C
70 24-11-2017 05:45:00 11.6 C 92 % 10.35 C
71 24-11-2017 05:50:00 11.6 C 92 % 10.35 C
72 24-11-2017 05:55:00 11.6 C 92 % 10.35 C
73 24-11-2017 06:00:00 11.6 C 92 % 10.35 C
74 24-11-2017 06:05:00 11.6 C 91 % 10.18 C
75 24-11-2017 06:10:00 11.4 C 91 % 9.98 C
Sensor: Nr:Datum:Temp:Feuchte:Taupunkt:
Aussen-T/F 76 24-11-2017 06:15:00 11.2 C 91 % 9.79 C
77 24-11-2017 06:20:00 11.2 C 92 % 9.95 C
78 24-11-2017 06:25:00 11.2 C 92 % 9.95 C
79 24-11-2017 06:30:00 11.3 C 92 % 10.05 C
80 24-11-2017 06:35:00 11.4 C 92 % 10.15 C
81 24-11-2017 06:40:00 11.7 C 91 % 10.28 C
82 24-11-2017 06:45:00 11.8 C 91 % 10.38 C
83 24-11-2017 06:50:00 11.9 C 90 % 10.31 C
84 24-11-2017 06:55:00 11.9 C 90 % 10.31 C
85 24-11-2017 07:00:00 11.9 C 90 % 10.31 C
86 24-11-2017 07:05:00 11.9 C 90 % 10.31 C
87 24-11-2017 07:10:00 11.8 C 90 % 10.21 C
88 24-11-2017 07:15:00 11.7 C 90 % 10.12 C
89 24-11-2017 07:20:00 11.7 C 90 % 10.12 C
90 24-11-2017 07:25:00 11.8 C 90 % 10.21 C
91 24-11-2017 07:30:00 11.8 C 90 % 10.21 C
92 24-11-2017 07:35:00 11.8 C 90 % 10.21 C
93 24-11-2017 07:40:00 11.8 C 90 % 10.21 C
94 24-11-2017 07:45:00 11.9 C 90 % 10.31 C
95 24-11-2017 07:50:00 12.1 C 90 % 10.51 C
96 24-11-2017 07:55:00 12.2 C 89 % 10.44 C
97 24-11-2017 08:00:00 12.3 C 89 % 10.54 C
98 24-11-2017 08:05:00 12.4 C 88 % 10.47 C
99 24-11-2017 08:10:00 12.5 C 88 % 10.57 C
100 24-11-2017 08:15:00 12.6 C 87 % 10.5 C
Sensor: Nr:Datum:Temp:Feuchte:Taupunkt:
Aussen-T/F 101 24-11-2017 08:20:00 12.7 C 87 % 10.59 C
102 24-11-2017 08:25:00 12.8 C 86 % 10.52 C
103 24-11-2017 08:30:00 13 C 85 % 10.54 C
104 24-11-2017 08:35:00 13.1 C 84 % 10.46 C
105 24-11-2017 08:40:00 13.2 C 84 % 10.56 C
106 24-11-2017 08:45:00 13.2 C 84 % 10.56 C
107 24-11-2017 08:50:00 13.2 C 84 % 10.56 C
108 24-11-2017 08:55:00 13.3 C 83 % 10.48 C
109 24-11-2017 09:00:00 13.3 C 83 % 10.48 C
110 24-11-2017 09:05:00 13.3 C 83 % 10.48 C
111 24-11-2017 09:10:00 13.3 C 83 % 10.48 C
112 24-11-2017 09:15:00 13.2 C 83 % 10.38 C
113 24-11-2017 09:20:00 13.2 C 83 % 10.38 C
114 24-11-2017 09:25:00 13.2 C 83 % 10.38 C
115 24-11-2017 09:30:00 13.2 C 83 % 10.38 C
116 24-11-2017 09:35:00 13.2 C 84 % 10.56 C
117 24-11-2017 09:40:00 13.3 C 83 % 10.48 C
118 24-11-2017 09:45:00 13.4 C 82 % 10.39 C
119 24-11-2017 09:50:00 13.4 C 82 % 10.39 C
120 24-11-2017 09:55:00 13.4 C 82 % 10.39 C
121 24-11-2017 10:00:00 13.5 C 81 % 10.31 C
122 24-11-2017 10:05:00 13.5 C 81 % 10.31 C
123 24-11-2017 10:10:00 13.6 C 82 % 10.59 C
124 24-11-2017 10:15:00 13.6 C 81 % 10.4 C
125 24-11-2017 10:20:00 13.6 C 81 % 10.4 C
Sensor: Nr:Datum:Temp:Feuchte:Taupunkt:
Aussen-T/F 126 24-11-2017 10:25:00 13.6 C 81 % 10.4 C
127 24-11-2017 10:30:00 13.6 C 81 % 10.4 C
128 24-11-2017 10:35:00 13.6 C 81 % 10.4 C
129 24-11-2017 10:40:00 13.6 C 82 % 10.59 C
130 24-11-2017 10:45:00 13.5 C 82 % 10.49 C
131 24-11-2017 10:50:00 13.4 C 83 % 10.57 C
132 24-11-2017 10:55:00 13.3 C 84 % 10.66 C
133 24-11-2017 11:00:00 13.2 C 84 % 10.56 C
134 24-11-2017 11:05:00 13.2 C 84 % 10.56 C
135 24-11-2017 11:10:00 13.2 C 84 % 10.56 C
136 24-11-2017 11:15:00 13.2 C 84 % 10.56 C
137 24-11-2017 11:20:00 13.3 C 84 % 10.66 C
138 24-11-2017 11:25:00 13.3 C 84 % 10.66 C
139 24-11-2017 11:30:00 13.3 C 84 % 10.66 C
140 24-11-2017 11:35:00 13.3 C 84 % 10.66 C
141 24-11-2017 11:40:00 13.4 C 84 % 10.75 C
142 24-11-2017 11:45:00 13.4 C 83 % 10.57 C
143 24-11-2017 11:50:00 13.6 C 83 % 10.77 C
144 24-11-2017 11:55:00 13.6 C 83 % 10.77 C
145 24-11-2017 12:00:00 13.6 C 83 % 10.77 C
146 24-11-2017 12:05:00 13.7 C 82 % 10.69 C
147 24-11-2017 12:10:00 13.7 C 82 % 10.69 C
148 24-11-2017 12:15:00 13.8 C 82 % 10.78 C
149 24-11-2017 12:20:00 13.7 C 82 % 10.69 C
150 24-11-2017 12:25:00 13.7 C 82 % 10.69 C
Sensor: Nr:Datum:Temp:Feuchte:Taupunkt:
Aussen-T/F 151 24-11-2017 12:30:00 13.6 C 83 % 10.77 C
152 24-11-2017 12:35:00 13.4 C 85 % 10.93 C
153 24-11-2017 12:40:00 13.2 C 86 % 10.91 C
154 24-11-2017 12:45:00 12.6 C 84 % 9.97 C
155 24-11-2017 12:50:00 11.8 C 85 % 9.36 C
156 24-11-2017 12:55:00 11.2 C 87 % 9.12 C
157 24-11-2017 13:00:00 10.7 C 88 % 8.8 C
158 24-11-2017 13:05:00 10.5 C 90 % 8.93 C
159 24-11-2017 13:10:00 10.2 C 90 % 8.64 C
160 24-11-2017 13:15:00 10 C 91 % 8.6 C
161 24-11-2017 13:20:00 9.8 C 91 % 8.4 C
162 24-11-2017 13:25:00 9.7 C 92 % 8.46 C
163 24-11-2017 13:30:00 9.6 C 93 % 8.53 C
164 24-11-2017 13:35:00 9.5 C 93 % 8.43 C
165 24-11-2017 13:40:00 9.4 C 93 % 8.33 C
166 24-11-2017 13:45:00 9.4 C 93 % 8.33 C
167 24-11-2017 13:50:00 9.4 C 94 % 8.48 C
168 24-11-2017 13:55:00 9.4 C 94 % 8.48 C
169 24-11-2017 14:00:00 9.4 C 94 % 8.48 C
170 24-11-2017 14:05:00 9.4 C 94 % 8.48 C
171 24-11-2017 14:10:00 9.3 C 94 % 8.39 C
172 24-11-2017 14:15:00 9.3 C 94 % 8.39 C
173 24-11-2017 14:20:00 9.3 C 94 % 8.39 C
174 24-11-2017 14:25:00 9.3 C 95 % 8.54 C
175 24-11-2017 14:30:00 9.3 C 95 % 8.54 C
Sensor: Nr:Datum:Temp:Feuchte:Taupunkt:
Aussen-T/F 176 24-11-2017 14:35:00 9.3 C 95 % 8.54 C
177 24-11-2017 14:40:00 9.3 C 95 % 8.54 C
178 24-11-2017 14:45:00 9.3 C 95 % 8.54 C
179 24-11-2017 14:50:00 9.3 C 95 % 8.54 C
180 24-11-2017 14:55:00 9.2 C 95 % 8.44 C
181 24-11-2017 15:00:00 9.2 C 95 % 8.44 C
182 24-11-2017 15:05:00 9.2 C 95 % 8.44 C
183 24-11-2017 15:10:00 9.2 C 95 % 8.44 C
184 24-11-2017 15:15:00 9.2 C 95 % 8.44 C
185 24-11-2017 15:20:00 9.2 C 95 % 8.44 C
186 24-11-2017 15:25:00 9.1 C 95 % 8.34 C
187 24-11-2017 15:30:00 9.1 C 95 % 8.34 C
188 24-11-2017 15:35:00 9.1 C 95 % 8.34 C
189 24-11-2017 15:40:00 9.1 C 95 % 8.34 C
190 24-11-2017 15:45:00 9.1 C 95 % 8.34 C
191 24-11-2017 15:50:00 9.1 C 95 % 8.34 C
192 24-11-2017 15:55:00 9.1 C 95 % 8.34 C
193 24-11-2017 16:00:00 9.1 C 95 % 8.34 C
194 24-11-2017 16:05:00 9.1 C 95 % 8.34 C
195 24-11-2017 16:10:00 9.1 C 95 % 8.34 C
196 24-11-2017 16:15:00 9.1 C 96 % 8.5 C
197 24-11-2017 16:20:00 9.1 C 95 % 8.34 C
198 24-11-2017 16:25:00 9 C 95 % 8.24 C
199 24-11-2017 16:30:00 9 C 95 % 8.24 C
200 24-11-2017 16:35:00 8.9 C 95 % 8.14 C
Sensor: Nr:Datum:Temp:Feuchte:Taupunkt:
Aussen-T/F 201 24-11-2017 16:40:00 8.9 C 95 % 8.14 C
202 24-11-2017 16:45:00 8.9 C 95 % 8.14 C
203 24-11-2017 16:50:00 8.8 C 96 % 8.2 C
204 24-11-2017 16:55:00 8.8 C 96 % 8.2 C
205 24-11-2017 17:00:00 8.7 C 95 % 7.94 C
206 24-11-2017 17:05:00 8.7 C 95 % 7.94 C
207 24-11-2017 17:10:00 8.7 C 96 % 8.1 C
208 24-11-2017 17:15:00 8.6 C 96 % 8 C
209 24-11-2017 17:20:00 8.6 C 96 % 8 C
210 24-11-2017 17:25:00 8.5 C 96 % 7.9 C
211 24-11-2017 17:30:00 8.4 C 96 % 7.8 C
212 24-11-2017 17:35:00 8.4 C 96 % 7.8 C
213 24-11-2017 17:40:00 8.4 C 96 % 7.8 C
214 24-11-2017 17:45:00 8.3 C 96 % 7.7 C
215 24-11-2017 17:50:00 8.3 C 96 % 7.7 C
216 24-11-2017 17:55:00 8.3 C 96 % 7.7 C
217 24-11-2017 18:00:00 8.3 C 96 % 7.7 C
218 24-11-2017 18:05:00 8.3 C 96 % 7.7 C
219 24-11-2017 18:10:00 8.3 C 96 % 7.7 C
220 24-11-2017 18:15:00 8.2 C 96 % 7.6 C
221 24-11-2017 18:20:00 8.2 C 96 % 7.6 C
222 24-11-2017 18:25:00 8.2 C 96 % 7.6 C
223 24-11-2017 18:30:00 8.2 C 96 % 7.6 C
224 24-11-2017 18:35:00 8.1 C 96 % 7.5 C
225 24-11-2017 18:40:00 8.1 C 96 % 7.5 C
Sensor: Nr:Datum:Temp:Feuchte:Taupunkt:
Aussen-T/F 226 24-11-2017 18:45:00 8.1 C 96 % 7.5 C
227 24-11-2017 18:50:00 8 C 96 % 7.4 C
228 24-11-2017 18:55:00 8 C 96 % 7.4 C
229 24-11-2017 19:00:00 8 C 96 % 7.4 C
230 24-11-2017 19:05:00 8 C 96 % 7.4 C
231 24-11-2017 19:10:00 8 C 96 % 7.4 C
232 24-11-2017 19:15:00 8 C 96 % 7.4 C
233 24-11-2017 19:20:00 8 C 96 % 7.4 C
234 24-11-2017 19:25:00 8 C 96 % 7.4 C
235 24-11-2017 19:30:00 7.9 C 96 % 7.3 C
236 24-11-2017 19:35:00 7.9 C 96 % 7.3 C
237 24-11-2017 19:40:00 7.9 C 96 % 7.3 C
238 24-11-2017 19:45:00 7.9 C 96 % 7.3 C
239 24-11-2017 19:50:00 7.9 C 96 % 7.3 C
240 24-11-2017 19:55:00 7.9 C 96 % 7.3 C
241 24-11-2017 20:00:00 7.9 C 96 % 7.3 C
242 24-11-2017 20:05:00 8 C 96 % 7.4 C
243 24-11-2017 20:10:00 7.9 C 96 % 7.3 C
244 24-11-2017 20:15:00 7.9 C 96 % 7.3 C
245 24-11-2017 20:20:00 7.9 C 96 % 7.3 C
246 24-11-2017 20:25:00 7.9 C 96 % 7.3 C
247 24-11-2017 20:30:00 7.9 C 96 % 7.3 C
248 24-11-2017 20:35:00 7.9 C 96 % 7.3 C
249 24-11-2017 20:40:00 7.9 C 96 % 7.3 C
250 24-11-2017 20:45:00 7.9 C 96 % 7.3 C
Sensor: Nr:Datum:Temp:Feuchte:Taupunkt:
Aussen-T/F 251 24-11-2017 20:50:00 7.9 C 96 % 7.3 C
252 24-11-2017 20:55:00 7.9 C 96 % 7.3 C
253 24-11-2017 21:00:00 7.9 C 96 % 7.3 C
254 24-11-2017 21:05:00 7.9 C 96 % 7.3 C
255 24-11-2017 21:10:00 7.9 C 96 % 7.3 C
256 24-11-2017 21:15:00 7.9 C 96 % 7.3 C
257 24-11-2017 21:20:00 7.9 C 96 % 7.3 C
258 24-11-2017 21:25:00 7.9 C 96 % 7.3 C
259 24-11-2017 21:30:00 7.9 C 96 % 7.3 C
260 24-11-2017 21:35:00 7.9 C 96 % 7.3 C
261 24-11-2017 21:40:00 7.9 C 96 % 7.3 C
262 24-11-2017 21:45:00 7.9 C 96 % 7.3 C
263 24-11-2017 21:50:00 7.9 C 96 % 7.3 C
264 24-11-2017 21:55:00 7.9 C 96 % 7.3 C
265 24-11-2017 22:00:00 7.9 C 96 % 7.3 C
266 24-11-2017 22:05:00 7.8 C 96 % 7.2 C
267 24-11-2017 22:10:00 7.8 C 96 % 7.2 C
268 24-11-2017 22:15:00 7.8 C 96 % 7.2 C
269 24-11-2017 22:20:00 7.8 C 97 % 7.35 C
270 24-11-2017 22:25:00 7.8 C 97 % 7.35 C
271 24-11-2017 22:30:00 7.9 C 97 % 7.45 C
272 24-11-2017 22:35:00 7.9 C 97 % 7.45 C
273 24-11-2017 22:40:00 7.9 C 97 % 7.45 C
274 24-11-2017 22:45:00 7.9 C 97 % 7.45 C
275 24-11-2017 22:50:00 7.9 C 97 % 7.45 C
Sensor: Nr:Datum:Temp:Feuchte:Taupunkt:
Aussen-T/F 276 24-11-2017 22:55:00 7.9 C 97 % 7.45 C
277 24-11-2017 23:00:00 7.8 C 97 % 7.35 C
278 24-11-2017 23:05:00 7.8 C 97 % 7.35 C
279 24-11-2017 23:10:00 7.8 C 97 % 7.35 C
280 24-11-2017 23:15:00 7.8 C 97 % 7.35 C
281 24-11-2017 23:20:00 7.8 C 97 % 7.35 C
282 24-11-2017 23:25:00 7.8 C 97 % 7.35 C
283 24-11-2017 23:30:00 7.8 C 97 % 7.35 C
284 24-11-2017 23:35:00 7.8 C 97 % 7.35 C
285 24-11-2017 23:40:00 7.8 C 97 % 7.35 C
286 24-11-2017 23:45:00 7.8 C 97 % 7.35 C
287 24-11-2017 23:50:00 7.8 C 97 % 7.35 C
288 24-11-2017 23:55:00 7.9 C 97 % 7.45 C

Legende:
   Min
   Max


Maximal/Minimal-Werte vom 24.11.2017 - 24.11.2017

Sensor Min Max Avg
Temp
(Aussen-T/F)
7.8 °C
24-11-2017  22:05:00
13.8 °C
24-11-2017  12:15:00
10.45 °C
Feuchte
(Aussen-T/F)
81 %
24-11-2017  10:00:00
97 %
24-11-2017  22:20:00
92.4 %
Taupunkt
(Aussen-T/F)
7.2 C
24-11-2017  22:05:00
11.08 C
24-11-2017  00:00:00
9.21 C

Die Daten stammen von einer Davis Vantage Pro 2 Wetter-Station und werden unter Linux mit der Software wview2wettercgi und aufbereitet. Alle Angaben erfolgen ohne Gewähr für ihre Vollständigkeit oder Richtigkeit.
Kontakt: Rainer Krienke krienke@uni-koblenz.de . Meine Webseiten an der Uni Koblenz oder privat.
Version: $Revision: 0.78 $